Healdton, OK (73438)

6:56 AM CST on February 28, 2015 (GMT -0600)
Carter County Dist 2 | Change Station
CLOSE
Current Station
Personal Weather Station
Location: Healdton, OK
Elevation: 933 ft
Nearby Weather Stations
Active Advisory: Winter Weather Advisory Active Notice: Record Report, Local Storm Report

Elev 933 ft 34.25 °N, 97.50 °W | Updated 12 minutes ago

Snow
Snow
21.6 °F
Feels Like 22 °F
N
3.0
Wind Variable Wind from ENE
Gusts 7.0 mph

Today
High -- | Low -- °F
--% Chance of Precip.
Yesterday
High -- | Low -- °F
Precip. -- in
7:00 AM 6:25 PM
Waxing Gibbous, 77% visible
Pressure 30.41 in
Visibility 5.0 miles
Clouds Mostly Cloudy 2000 ft
Overcast 3400 ft
Windchill 22 °F
Dew Point 19 °F
Humidity 91%
Rainfall 0.00 in
Snow Depth Not available.
UV 0 out of 12
Pollen 1.20 out of 12
Air Quality Not available.
Flu Activity Not available.
METAR K1F0 281235Z AUTO 08004KT 5SM BR BKN020 OVC034 M05/M06 A3041 RMK AO2 P0001

More Conditions Fewer Conditions

Pressure 30.41 in
Visibility 5.0 miles
Clouds Mostly Cloudy 2000 ft
Overcast 3400 ft
Windchill 22 °F
Dew Point 19 °F
Humidity 91%
Rainfall 0.00 in
Snow Depth Not available.
UV 0 out of 12
Pollen 1.20 out of 12
Air Quality Not available.
Flu Activity Not available.
METAR K1F0 281235Z AUTO 08004KT 5SM BR BKN020 OVC034 M05/M06 A3041 RMK AO2 P0001

More Conditions Fewer Conditions

10-Day Weather Forecast

Almanac

Astronomy

Feb. 28, 2015 Rise Set
Actual Time
Civil Twilight
Nautical Twilight
Astronomical Twilight
Moon
Length of Visible Light
Length of Day
Tomorrow will be .
, % of the Moon is Illuminated

Today's Extremes

State Highs State Lows

Community

WunderPhotos

Upload Photos

1,801,000 photos uploaded!

WunderBlogs® & News

Nearby

Air Quality

  Air Quality AQ Index Pollutant
Not available.

Snow Depth

Station Depth Elevation

Earthquake Activity

City Distance Mag. Time & Date
Minimum magnitude displayed is 2.5.

Coastal Water Temperatures

Place Temperature

Nearby Weather Stations

Winter Weather Advisory
Statement as of 4:00 AM CST on February 28, 2015

... Winter Weather Advisory now in effect until 6 PM CST this
evening...

* main impact: 1 to 3 inches of new snowfall today.

* Other impacts: slick and hazardous roads are expected.

Precautionary/preparedness actions...

Be careful if you have to travel. Even small amounts of ice and
snow can make roads and sidewalks slick and dangerous.